• Join FlightAware (Why Join?)
  • Login
  • US Flag 
12:55AM EDT


 

Airport Tracker/Info


-or-


 

Live Flight TrackerFlight Track Log ✈ N406RC ✈ 29-Apr-2013 ✈ KABR - KSTC

Flight Track Log - Related Links

Times and Time Zones

All times are in EDT time to prevent confusion due to time zone crossing. See the N406RC flight status page for this flight to view local times or setup timezone preferences in your user account.

Time Position Orientation Groundspeed Altitude Reporting Facility
EDT Latitude Longitude Course Direction KTS MPH feet Rate Location/Type
05:25AM 45.4283 -98.3472 90° East 117 135 3,500  Level Minneapolis Center
05:26AM 45.4264 -98.2961 93° East 115 132 4,500 840 Climbing Minneapolis Center
05:27AM 45.4264 -98.2572 90° East 113 130 5,300 720 Climbing Minneapolis Center
05:28AM 45.4281 -98.2094 87° East 117 135 6,000 600 Climbing Minneapolis Center
05:29AM 45.4283 -98.1514 90° East 135 155 6,600 540 Climbing Minneapolis Center
05:30AM 45.4281 -98.0794 90° East 148 170 7,200 240 Climbing Minneapolis Center
05:31AM 45.4500 -98.0176 90° East  Level FlightAware Approximate
05:31AM 45.4294 -98.0086 88° East 161 185 7,100  Level Minneapolis Center
05:32AM 45.4250 -97.9389 95° East 184 212 7,100  Level Minneapolis Center
05:33AM 45.4267 -97.8633 88° East 191 220 7,100  Level Minneapolis Center
05:34AM 45.4306 -97.7894 86° East 189 217 7,100  Level Minneapolis Center
05:35AM 45.4342 -97.7139 86° East 190 219 7,100 -60 Level Minneapolis Center
05:36AM 45.4403 -97.6397 83° East 189 217 7,000 -60 Descending Minneapolis Center
05:37AM 45.4447 -97.5656 85° East 189 217 7,000  Level Minneapolis Center
05:38AM 45.4503 -97.4883 84° East 194 223 7,000  Level Minneapolis Center
05:39AM 45.4528 -97.4133 87° East 191 220 7,000  Level Minneapolis Center
05:40AM 45.4569 -97.3367 86° East 194 223 7,000  Level Minneapolis Center
05:41AM 45.4594 -97.2542 87° East 191 220 7,000  Level Minneapolis Center
05:42AM 45.4603 -97.1875 89° East 189 217 7,000  Level Minneapolis Center
05:43AM 45.4619 -97.1119 88° East 190 219 7,000  Level Minneapolis Center
05:44AM 45.4650 -97.0361 87° East 192 221 7,000  Level Minneapolis Center
05:45AM 45.4681 -96.9606 87° East 191 220 7,000  Level Minneapolis Center
05:46AM 45.4711 -96.8856 87° East 190 219 7,000  Level Minneapolis Center
05:47AM 45.4736 -96.8097 87° East 193 222 7,000  Level Minneapolis Center
05:48AM 45.4761 -96.7358 87° East 189 217 7,000  Level Minneapolis Center
05:49AM 45.4800 -96.6611 86° East 189 217 7,000  Level Minneapolis Center
05:50AM 45.4822 -96.5856 88° East 191 220 7,000  Level Minneapolis Center
05:51AM 45.4850 -96.5114 87° East 189 217 7,000  Level Minneapolis Center
05:52AM 45.4878 -96.4339 87° East 192 221 7,000  Level Minneapolis Center
05:53AM 45.4903 -96.3603 87° East 190 219 7,000  Level Minneapolis Center
05:54AM 45.4917 -96.2861 88° East 189 217 7,000  Level Minneapolis Center
05:55AM 45.4936 -96.2261 87° East 189 217 7,000  Level Minneapolis Center
05:56AM 45.4958 -96.1211 88° East 189 217 7,000  Level Minneapolis Center
05:57AM 45.4969 -96.0478 89° East 188 216 7,000  Level Minneapolis Center
05:58AM 45.4994 -95.9747 87° East 186 214 7,000  Level Minneapolis Center
05:59AM 45.5031 -95.9011 86° East 186 214 7,000  Level Minneapolis Center
06:00AM 45.5058 -95.8322 87° East 183 211 7,000  Level Minneapolis Center
06:01AM 45.5075 -95.7564 88° East 185 213 7,000  Level Minneapolis Center
06:02AM 45.5094 -95.6828 88° East 185 213 7,100  Climbing Minneapolis Center
06:03AM 45.5125 -95.6111 86° East 185 213 7,100  Level Minneapolis Center
06:04AM 45.5133 -95.5356 89° East 187 215 7,100  Level Minneapolis Center
06:05AM 45.5150 -95.4631 88° East 185 213 7,100  Level Minneapolis Center
06:06AM 45.5164 -95.3906 88° East 183 211 7,100  Level Minneapolis Center
06:07AM 45.5183 -95.3178 88° East 186 214 7,100  Level Minneapolis Center
06:08AM 45.5203 -95.2450 88° East 184 212 7,100  Level Minneapolis Center
06:09AM 45.5231 -95.1722 87° East 184 212 7,100  Level Minneapolis Center
06:10AM 45.5239 -95.0983 89° East 185 213 7,100  Level Minneapolis Center
06:11AM 45.5256 -95.0286 88° East 184 212 7,100  Level Minneapolis Center
06:13AM 45.5272 -94.9403 88° East 185 213 7,100  Level Minneapolis Center
06:14AM 45.5275 -94.8664 90° East 186 214 7,100  Level Minneapolis Center
06:15AM 45.5289 -94.7939 88° East 185 213 7,100  Level Minneapolis Center
06:16AM 45.5289 -94.7364 90° East 184 212 7,100  Level Minneapolis Center
06:17AM 45.5361 -94.6481 83° East 187 215 7,100 -300 Level Minneapolis Center
06:18AM 45.5383 -94.5725 88° East 189 217 6,600 -540 Descending Minneapolis Center
06:19AM 45.5411 -94.4939 87° East 195 224 6,100 -660 Descending Minneapolis Center
06:20AM 45.5428 -94.4147 88° East 200 230 5,300 -840 Descending Minneapolis Center